Time;durP1;ratioP1;P1;durP2;ratioP2;P2;SDS_P1;SDS_P2;PMS_P1;PMS_P2;Temp;Humidity;BMP_temperature;BMP_pressure;BME280_temperature;BME280_humidity;BME280_pressure;Samples;Min_cycle;Max_cycle;Signal;HPM_P1;HPM_P2
2024/04/15 00:02:00;;;;;;;6.85;1.60;;;;;;;10.24;100.00;69537.47;5516706;26;20034;-54
2024/04/15 00:04:30;;;;;;;3.85;1.00;;;;;;;10.14;100.00;69532.22;5519160;25;20013;-55
2024/04/15 00:07:00;;;;;;;7.53;1.15;;;;;;;10.13;100.00;69530.47;5516090;25;20052;-55
2024/04/15 00:09:28;;;;;;;7.32;1.55;;;;;;;10.09;100.00;69521.16;5519514;25;20340;-54
2024/04/15 00:11:59;;;;;;;8.65;1.35;;;;;;;10.06;100.00;69522.88;5518502;25;20003;-55
2024/04/15 00:14:26;;;;;;;6.70;1.50;;;;;;;10.02;100.00;69513.00;5518951;25;20001;-50
2024/04/15 00:16:57;;;;;;;7.22;1.20;;;;;;;10.00;100.00;69510.06;5518900;25;20032;-46
2024/04/15 00:19:27;;;;;;;6.68;1.30;;;;;;;10.09;100.00;69520.56;5523256;25;19998;-51
2024/04/15 00:22:01;;;;;;;7.90;1.45;;;;;;;10.01;100.00;69511.22;5523031;25;20021;-48
2024/04/15 00:24:29;;;;;;;7.50;1.52;;;;;;;9.97;100.00;69509.75;5523043;25;19996;-49
2024/04/15 00:27:00;;;;;;;7.65;1.48;;;;;;;9.96;100.00;69509.16;5522560;25;20489;-49
2024/04/15 00:29:30;;;;;;;6.93;1.40;;;;;;;9.97;100.00;69512.38;5522904;26;20379;-50
2024/04/15 00:31:58;;;;;;;7.40;1.55;;;;;;;9.91;100.00;69503.34;5523061;25;20469;-47
2024/04/15 00:34:29;;;;;;;5.28;1.38;;;;;;;9.79;100.00;69487.31;5523007;25;19998;-46
2024/04/15 00:36:59;;;;;;;6.40;1.67;;;;;;;9.77;100.00;69487.00;5522744;25;20337;-49
2024/04/15 00:39:30;;;;;;;7.70;1.95;;;;;;;9.70;100.00;69476.81;5522659;25;19998;-49
2024/04/15 00:41:57;;;;;;;8.23;2.05;;;;;;;9.66;100.00;69476.78;5522763;26;20029;-47
2024/04/15 00:44:34;;;;;;;11.68;2.25;;;;;;;9.63;100.00;69471.25;5522889;26;20500;-49
2024/04/15 00:47:06;;;;;;;9.10;2.17;;;;;;;9.62;100.00;69470.66;5522595;25;20073;-54
2024/04/15 00:49:37;;;;;;;7.55;2.25;;;;;;;9.62;100.00;69473.28;5522855;25;20437;-53
2024/04/15 00:52:08;;;;;;;8.65;2.60;;;;;;;9.54;100.00;69463.38;5523127;25;20013;-49
2024/04/15 00:54:41;;;;;;;9.70;2.58;;;;;;;9.47;100.00;69451.16;5522483;25;20009;-49
2024/04/15 00:57:10;;;;;;;9.25;2.55;;;;;;;9.44;100.00;69449.69;5522879;25;20021;-52
2024/04/15 00:59:41;;;;;;;9.80;2.65;;;;;;;9.39;100.00;69441.25;5522272;25;19998;-48
2024/04/15 01:02:09;;;;;;;10.63;2.90;;;;;;;9.30;100.00;69433.94;5522142;26;19997;-53
2024/04/15 01:04:39;;;;;;;7.75;2.78;;;;;;;9.27;100.00;69431.03;5516729;25;20449;-53
2024/04/15 01:07:10;;;;;;;12.55;3.33;;;;;;;9.27;100.00;69425.81;5518660;26;20005;-52
2024/04/15 01:09:40;;;;;;;10.63;2.97;;;;;;;9.21;100.00;69424.03;5522155;25;20429;-52
2024/04/15 01:12:09;;;;;;;7.97;2.53;;;;;;;9.14;100.00;69416.44;5522401;25;20402;-53
2024/04/15 01:14:39;;;;;;;12.30;3.05;;;;;;;9.04;100.00;69402.19;5522430;25;20009;-52
2024/04/15 01:17:07;;;;;;;6.82;2.60;;;;;;;9.08;100.00;69409.47;5522806;25;20425;-53
2024/04/15 01:19:37;;;;;;;8.18;2.65;;;;;;;9.01;100.00;69400.72;5521904;25;20001;-52
2024/04/15 01:22:11;;;;;;;;;;;;;;;9.02;100.00;69405.06;5522945;25;20002;-52
2024/04/15 01:24:46;;;;;;;9.27;3.00;;;;;;;8.98;100.00;69397.22;5522551;26;19959;-52
2024/04/15 01:27:14;;;;;;;7.97;2.88;;;;;;;8.96;100.00;69396.03;5521831;26;20369;-52
2024/04/15 01:29:44;;;;;;;10.55;2.42;;;;;;;8.89;100.00;69387.28;5520843;25;19997;-52
2024/04/15 01:32:12;;;;;;;12.27;3.25;;;;;;;8.85;100.00;69382.63;5517835;25;20012;-53
2024/04/15 01:34:42;;;;;;;9.05;2.97;;;;;;;8.81;100.00;69375.97;5514879;26;20034;-52
2024/04/15 01:37:10;;;;;;;9.48;2.85;;;;;;;8.77;100.00;69373.91;5519313;25;20041;-52
2024/04/15 01:39:40;;;;;;;11.20;3.50;;;;;;;8.75;100.00;69363.75;5522059;25;20021;-53
2024/04/15 01:42:11;;;;;;;10.85;3.35;;;;;;;8.69;100.00;69365.16;5521841;25;19997;-53
2024/04/15 01:44:45;;;;;;;11.43;3.08;;;;;;;8.63;100.00;69355.56;5520528;25;20004;-52
2024/04/15 01:47:12;;;;;;;10.63;3.28;;;;;;;8.59;100.00;69353.50;5517684;25;20001;-54
2024/04/15 01:49:43;;;;;;;9.30;3.38;;;;;;;8.57;100.00;69351.75;5520019;25;20012;-55
2024/04/15 01:52:10;;;;;;;10.75;3.75;;;;;;;8.56;100.00;69347.41;5525562;25;19993;-52
2024/04/15 01:54:41;;;;;;;9.48;3.13;;;;;;;8.56;100.00;69348.00;5525447;25;19997;-52
2024/04/15 01:57:11;;;;;;;10.73;3.50;;;;;;;8.54;100.00;69345.09;5524560;26;20012;-54
2024/04/15 01:59:42;;;;;;;10.63;3.63;;;;;;;8.55;100.00;69346.81;5521243;25;19997;-55
2024/04/15 02:02:10;;;;;;;11.80;3.58;;;;;;;8.55;100.00;69348.84;5521439;25;20001;-54
2024/04/15 02:04:40;;;;;;;11.55;3.40;;;;;;;8.55;100.00;69346.81;5524071;25;20555;-54
2024/04/15 02:07:08;;;;;;;13.18;3.92;;;;;;;8.59;100.00;69359.28;5525133;25;20013;-53
2024/04/15 02:09:38;;;;;;;10.57;3.28;;;;;;;8.58;100.00;69352.91;5525569;26;20065;-53
2024/04/15 02:12:07;;;;;;;8.77;3.42;;;;;;;8.62;100.00;69357.00;5524929;26;19990;-54
2024/04/15 02:14:40;;;;;;;8.70;2.83;;;;;;;8.59;100.00;69354.09;5524955;25;20000;-54
2024/04/15 02:17:08;;;;;;;7.97;3.38;;;;;;;8.53;100.00;69347.09;5525065;25;20008;-53
2024/04/15 02:19:38;;;;;;;10.50;3.42;;;;;;;8.58;100.00;69352.91;5520067;26;20017;-54
2024/04/15 02:22:06;;;;;;;10.90;3.38;;;;;;;8.57;100.00;69343.94;5519781;25;20049;-54
2024/04/15 02:24:39;;;;;;;12.05;3.70;;;;;;;8.60;100.00;69352.66;5521281;25;20444;-54
2024/04/15 02:27:07;;;;;;;10.43;3.22;;;;;;;8.58;100.00;69354.94;5522794;25;20038;-54
2024/04/15 02:29:40;;;;;;;9.07;3.40;;;;;;;8.56;100.00;69350.00;5522196;25;20017;-54
2024/04/15 02:32:08;;;;;;;10.05;3.97;;;;;;;8.59;100.00;69354.09;5520965;26;20436;-53
2024/04/15 02:34:38;;;;;;;10.55;4.18;;;;;;;8.58;100.00;69352.34;5525028;25;19997;-54
2024/04/15 02:37:06;;;;;;;11.43;3.85;;;;;;;8.61;100.00;69353.81;5524792;25;20001;-53
2024/04/15 02:39:37;;;;;;;9.95;4.07;;;;;;;8.59;100.00;69356.69;5525036;25;20008;-54
2024/04/15 02:42:05;;;;;;;12.77;4.15;;;;;;;8.57;100.00;69349.16;5525178;25;20421;-54
2024/04/15 02:44:35;;;;;;;10.88;4.45;;;;;;;8.59;100.00;69350.91;5524133;25;20004;-53
2024/04/15 02:47:06;;;;;;;13.85;4.97;;;;;;;8.57;100.00;69353.78;5520311;25;20456;-54
2024/04/15 02:49:37;;;;;;;8.77;4.65;;;;;;;8.54;100.00;69347.69;5519984;25;20329;-54
2024/04/15 02:52:05;;;;;;;10.43;4.65;;;;;;;8.52;100.00;69343.34;5519438;25;20013;-53
2024/04/15 02:54:35;;;;;;;12.82;4.80;;;;;;;8.52;100.00;69345.34;5521759;26;19993;-54
2024/04/15 02:57:03;;;;;;;10.95;4.63;;;;;;;8.54;100.00;69347.69;5524680;25;20364;-51
2024/04/15 02:59:36;;;;;;;12.05;4.40;;;;;;;8.54;100.00;69345.09;5524467;25;19998;-52
2024/04/15 03:02:07;;;;;;;13.13;4.65;;;;;;;8.53;100.00;69349.13;5522674;25;20020;-51
2024/04/15 03:04:37;;;;;;;12.00;4.82;;;;;;;8.50;100.00;69343.03;5523915;25;20068;-49
2024/04/15 03:07:05;;;;;;;13.82;4.95;;;;;;;8.47;100.00;69342.72;5524182;25;20004;-47
2024/04/15 03:09:35;;;;;;;10.98;4.85;;;;;;;8.47;100.00;69340.09;5524088;25;20029;-48
2024/04/15 03:12:04;;;;;;;13.98;4.90;;;;;;;8.48;100.00;69341.28;5523686;25;20008;-47
2024/04/15 03:14:34;;;;;;;14.23;5.00;;;;;;;8.46;100.00;69338.94;5524000;25;20069;-47
2024/04/15 03:17:02;;;;;;;12.07;4.68;;;;;;;8.50;100.00;69343.03;5524397;25;20437;-47
2024/04/15 03:19:36;;;;;;;13.80;5.13;;;;;;;8.45;100.00;69340.97;5523714;25;20034;-46
2024/04/15 03:22:04;;;;;;;14.13;4.82;;;;;;;8.41;100.00;69333.09;5523859;25;20069;-53
2024/04/15 03:24:35;;;;;;;13.88;5.00;;;;;;;8.45;100.00;69335.75;5524278;25;20094;-53
2024/04/15 03:27:05;;;;;;;11.27;5.53;;;;;;;8.42;100.00;69334.25;5524059;25;20480;-54
2024/04/15 03:29:35;;;;;;;11.88;5.32;;;;;;;8.39;100.00;69331.34;5523963;25;20410;-54
2024/04/15 03:32:04;;;;;;;16.77;6.38;;;;;;;8.42;100.00;69329.06;5521247;25;19997;-53
2024/04/15 03:34:37;;;;;;;12.38;5.57;;;;;;;8.39;100.00;69331.34;5519669;25;20001;-55
2024/04/15 03:37:07;;;;;;;14.82;5.88;;;;;;;8.33;100.00;69321.75;5519743;25;20076;-55
2024/04/15 03:39:38;;;;;;;15.27;6.45;;;;;;;8.37;100.00;69328.41;5523938;25;20021;-55
2024/04/15 03:42:08;;;;;;;17.58;6.25;;;;;;;8.33;100.00;69323.75;5523605;25;20452;-54
2024/04/15 03:44:36;;;;;;;14.02;6.72;;;;;;;8.34;100.00;69327.53;5523859;25;20004;-54
2024/04/15 03:47:09;;;;;;;15.65;6.60;;;;;;;8.32;100.00;69325.19;5519913;25;20001;-53
2024/04/15 03:49:43;;;;;;;13.52;6.25;;;;;;;8.28;100.00;69316.50;5518588;25;19997;-54
2024/04/15 03:52:11;;;;;;;15.45;6.22;;;;;;;8.24;100.00;69311.28;5519471;25;20007;-54
2024/04/15 03:54:42;;;;;;;12.50;6.38;;;;;;;8.24;100.00;69311.84;5521807;25;20009;-53
2024/04/15 03:57:09;;;;;;;17.35;7.20;;;;;;;8.18;100.00;69310.06;5523779;25;20005;-54
2024/04/15 03:59:40;;;;;;;14.23;5.75;;;;;;;8.19;100.00;69308.63;5523427;25;20045;-54
2024/04/15 04:02:08;;;;;;;16.20;6.35;;;;;;;8.19;100.00;69311.22;5522605;25;20000;-53
2024/04/15 04:04:40;;;;;;;13.90;6.65;;;;;;;8.12;100.00;69303.63;5515778;25;20385;-53
2024/04/15 04:07:11;;;;;;;12.85;5.95;;;;;;;8.08;100.00;69296.38;5519001;26;20025;-53
2024/04/15 04:09:41;;;;;;;16.83;6.32;;;;;;;8.06;100.00;69293.50;5519687;25;20324;-52
2024/04/15 04:12:09;;;;;;;14.70;6.18;;;;;;;7.96;100.00;69279.81;5519990;25;20059;-55
2024/04/15 04:14:39;;;;;;;13.25;6.15;;;;;;;7.93;100.00;69279.50;5522192;25;20338;-53
2024/04/15 04:17:07;;;;;;;15.80;5.85;;;;;;;7.89;100.00;69277.44;5521916;25;20336;-53
2024/04/15 04:19:38;;;;;;;14.18;5.60;;;;;;;7.91;100.00;69274.56;5518838;25;20442;-53
2024/04/15 04:22:06;;;;;;;12.35;6.15;;;;;;;7.89;100.00;69277.44;5521127;25;20073;-52
2024/04/15 04:24:41;;;;;;;14.80;6.20;;;;;;;7.87;100.00;69271.94;5520382;26;19997;-50
2024/04/15 04:27:09;;;;;;;15.13;5.93;;;;;;;7.82;100.00;69269.28;5518942;25;20019;-54
2024/04/15 04:29:39;;;;;;;18.13;6.57;;;;;;;7.82;100.00;69266.69;5520389;25;19997;-53
2024/04/15 04:32:07;;;;;;;18.08;6.38;;;;;;;7.87;100.00;69269.91;5523086;25;19990;-54
2024/04/15 04:34:37;;;;;;;15.98;6.40;;;;;;;7.83;100.00;69267.84;5523069;25;19993;-53
2024/04/15 04:37:05;;;;;;;14.45;5.85;;;;;;;7.82;100.00;69266.69;5519212;25;20045;-52
2024/04/15 04:39:35;;;;;;;11.52;5.53;;;;;;;7.71;100.00;69254.44;5519480;25;20001;-52
2024/04/15 04:42:06;;;;;;;18.33;6.03;;;;;;;7.66;100.00;69242.84;5521492;25;20005;-52
2024/04/15 04:44:36;;;;;;;14.38;4.95;;;;;;;7.66;100.00;69245.44;5519342;25;20004;-54
2024/04/15 04:47:04;;;;;;;17.20;5.57;;;;;;;7.62;100.00;69241.38;5521444;25;20009;-52
2024/04/15 04:49:35;;;;;;;15.07;5.60;;;;;;;7.57;100.00;69235.56;5522216;25;20012;-54
2024/04/15 04:52:03;;;;;;;15.10;5.80;;;;;;;7.60;100.00;69239.63;5522591;25;20080;-54
2024/04/15 04:54:33;;;;;;;13.43;5.00;;;;;;;7.64;100.00;69243.13;5522268;25;19997;-54
2024/04/15 04:57:01;;;;;;;15.13;4.82;;;;;;;7.61;100.00;69240.78;5522348;25;20512;-54
2024/04/15 04:59:34;;;;;;;17.70;5.28;;;;;;;7.64;100.00;69246.31;5521886;25;19989;-54
2024/04/15 05:02:02;;;;;;;14.73;5.30;;;;;;;7.63;100.00;69241.97;5518655;25;19993;-52
2024/04/15 05:04:36;;;;;;;15.30;4.80;;;;;;;7.56;100.00;69237.56;5517259;25;19989;-53
2024/04/15 05:07:04;;;;;;;17.13;5.30;;;;;;;7.59;100.00;69241.06;5518585;25;20004;-54
2024/04/15 05:09:35;;;;;;;12.82;5.72;;;;;;;7.56;100.00;69237.56;5522431;25;20077;-53
2024/04/15 05:12:05;;;;;;;13.20;4.45;;;;;;;7.63;100.00;69242.53;5522403;25;20068;-54
2024/04/15 05:14:36;;;;;;;15.23;4.88;;;;;;;7.60;100.00;69241.66;5521982;26;20459;-54
2024/04/15 05:17:08;;;;;;;11.10;4.80;;;;;;;7.61;100.00;69240.22;5522177;25;20009;-53
2024/04/15 05:19:36;;;;;;;;;;;;;;;7.59;100.00;69241.06;5522590;25;20029;-52
2024/04/15 05:22:06;;;;;;;10.38;4.00;;;;;;;7.63;100.00;69239.38;5517813;26;19930;-53
2024/04/15 05:24:34;;;;;;;17.35;4.60;;;;;;;7.65;100.00;69241.69;5517827;25;20496;-52
2024/04/15 05:27:05;;;;;;;15.93;5.30;;;;;;;7.62;100.00;69241.38;5519201;26;20389;-54
2024/04/15 05:29:35;;;;;;;12.43;4.88;;;;;;;7.61;100.00;69242.81;5525812;25;20001;-52
2024/04/15 05:32:06;;;;;;;11.95;4.25;;;;;;;7.63;100.00;69247.16;5525830;25;20346;-54
2024/04/15 05:34:35;;;;;;;15.15;5.07;;;;;;;7.66;100.00;69245.44;5522577;25;19998;-54
2024/04/15 05:37:08;;;;;;;14.32;4.20;;;;;;;7.63;100.00;69239.94;5520845;25;20002;-54
2024/04/15 05:39:39;;;;;;;15.38;4.40;;;;;;;7.65;100.00;69244.28;5521635;25;20520;-53
2024/04/15 05:42:10;;;;;;;16.15;4.60;;;;;;;7.65;100.00;69244.28;5521838;25;20042;-54
2024/04/15 05:44:40;;;;;;;15.35;3.97;;;;;;;7.66;100.00;69246.03;5525597;25;19997;-54
2024/04/15 05:47:11;;;;;;;16.55;5.13;;;;;;;7.67;100.00;69244.59;5522940;25;20005;-54
2024/04/15 05:49:38;;;;;;;16.70;4.90;;;;;;;7.69;100.00;69249.53;5520335;26;20008;-52
2024/04/15 05:52:09;;;;;;;15.73;4.80;;;;;;;7.71;100.00;69254.44;5520546;25;20005;-54
2024/04/15 05:54:37;;;;;;;20.88;5.28;;;;;;;7.70;100.00;69250.72;5522192;26;20006;-54
2024/04/15 05:57:07;;;;;;;8.10;3.72;;;;;;;7.74;100.00;69257.38;5523413;25;20373;-52
2024/04/15 05:59:35;;;;;;;12.95;3.97;;;;;;;7.76;100.00;69262.31;5521211;26;20073;-53
2024/04/15 06:02:08;;;;;;;14.77;4.80;;;;;;;7.77;100.00;69258.84;5523954;25;19997;-55
2024/04/15 06:04:35;;;;;;;11.10;3.47;;;;;;;7.85;100.00;69269.59;5525270;25;19994;-52
2024/04/15 06:07:06;;;;;;;13.98;3.83;;;;;;;7.87;100.00;69271.94;5525162;26;20061;-54
2024/04/15 06:09:36;;;;;;;16.25;5.05;;;;;;;7.94;100.00;69278.06;5523425;26;20163;-53
2024/04/15 06:12:07;;;;;;;12.90;4.28;;;;;;;8.03;100.00;69287.97;5521184;26;20007;-54
2024/04/15 06:14:35;;;;;;;14.30;4.28;;;;;;;8.04;100.00;69291.16;5520768;25;20008;-52
2024/04/15 06:17:08;;;;;;;12.63;4.30;;;;;;;8.03;100.00;69290.56;5524107;25;19997;-54
2024/04/15 06:19:36;;;;;;;11.88;4.72;;;;;;;8.02;100.00;69286.81;5520259;25;20377;-53
2024/04/15 06:22:07;;;;;;;15.75;4.57;;;;;;;8.03;100.00;69295.78;5519508;26;19997;-53
2024/04/15 06:24:35;;;;;;;15.55;4.60;;;;;;;8.07;100.00;69292.63;5519394;26;20066;-54
2024/04/15 06:27:06;;;;;;;15.98;3.80;;;;;;;8.16;100.00;69299.34;5510809;26;20002;-54
2024/04/15 06:29:36;;;;;;;11.18;4.57;;;;;;;8.22;100.00;69314.72;5522711;25;20338;-54
2024/04/15 06:32:09;;;;;;;12.90;4.10;;;;;;;8.36;100.00;69327.28;5540848;25;20001;-54
2024/04/15 06:34:37;;;;;;;14.45;5.07;;;;;;;8.42;100.00;69334.25;5488051;26;20331;-51
2024/04/15 06:37:07;;;;;;;12.20;4.22;;;;;;;8.50;100.00;69337.81;5509911;26;20453;-54
2024/04/15 06:39:35;;;;;;;14.15;3.83;;;;;;;8.56;100.00;69344.81;5519976;26;20040;-55
2024/04/15 06:42:06;;;;;;;10.63;3.55;;;;;;;8.70;100.00;69361.13;5519765;25;20460;-49
2024/04/15 06:44:35;;;;;;;9.88;3.53;;;;;;;8.74;100.00;69371.00;5523790;26;19993;-54
2024/04/15 06:47:08;;;;;;;10.90;4.03;;;;;;;8.83;100.00;69378.28;5523009;26;19998;-54
2024/04/15 06:49:36;;;;;;;12.63;3.60;;;;;;;8.93;100.00;69389.34;5523581;26;20089;-52
2024/04/15 06:52:07;;;;;;;12.80;4.10;;;;;;;9.03;100.00;69401.03;5524650;26;19998;-51
2024/04/15 06:54:36;;;;;;;10.63;3.75;;;;;;;9.10;100.00;69411.22;5523853;26;20390;-55
2024/04/15 06:57:07;;;;;;;10.93;3.72;;;;;;;9.20;100.00;69422.84;5524436;25;19997;-53
2024/04/15 06:59:35;;;;;;;12.07;3.67;;;;;;;9.30;100.00;69436.56;5491916;26;20798;-54
2024/04/15 07:02:10;;;;;;;14.25;4.22;;;;;;;9.39;100.00;69441.25;5524091;26;20381;-53
2024/04/15 07:04:38;;;;;;;12.45;3.85;;;;;;;9.57;100.00;69461.66;5520370;26;20005;-54
2024/04/15 07:07:09;;;;;;;12.73;3.70;;;;;;;9.66;100.00;69471.56;5518186;26;20466;-53
2024/04/15 07:09:37;;;;;;;11.35;3.70;;;;;;;9.79;100.00;69489.91;5520276;26;20294;-54
2024/04/15 07:12:08;;;;;;;14.02;3.75;;;;;;;9.95;100.00;69510.03;5520674;26;20001;-53
2024/04/15 07:14:35;;;;;;;13.27;3.58;;;;;;;10.14;100.00;69527.00;5519663;26;19999;-47
2024/04/15 07:17:08;;;;;;;13.80;3.75;;;;;;;10.35;100.00;69549.75;5522172;25;20013;-49
2024/04/15 07:19:36;;;;;;;13.25;3.45;;;;;;;10.47;100.00;69568.97;5522454;26;19993;-55
2024/04/15 07:22:07;;;;;;;10.98;2.97;;;;;;;10.61;100.00;69582.72;5519292;26;20029;-47
2024/04/15 07:24:35;;;;;;;11.57;2.80;;;;;;;10.67;100.00;69588.56;5521236;26;20012;-48
2024/04/15 07:27:06;;;;;;;12.30;2.88;;;;;;;10.73;100.00;69595.53;5523677;26;20050;-55
2024/04/15 07:29:37;;;;;;;9.23;2.80;;;;;;;10.84;100.00;69605.78;5523887;26;20001;-55
2024/04/15 07:32:10;;;;;;;10.82;2.55;;;;;;;10.92;100.00;69609.91;5523086;25;20006;-55
2024/04/15 07:34:38;;;;;;;13.27;3.50;;;;;;;11.05;100.00;69634.38;5518641;26;20004;-55
2024/04/15 07:37:10;;;;;;;10.68;3.10;;;;;;;11.27;100.00;69654.25;5518809;25;20002;-55
2024/04/15 07:39:38;;;;;;;9.77;2.63;;;;;;;11.35;100.00;69665.63;5520377;26;20007;-55
2024/04/15 07:42:09;;;;;;;9.30;2.50;;;;;;;11.48;100.00;69676.16;5522446;26;20017;-55
2024/04/15 07:44:37;;;;;;;11.18;2.60;;;;;;;11.60;100.00;69692.22;5519856;25;20004;-55
2024/04/15 07:47:10;;;;;;;13.50;2.50;;;;;;;11.68;100.00;69700.97;5519650;26;20073;-55
2024/04/15 07:49:38;;;;;;;11.45;3.00;;;;;;;11.73;100.00;69706.81;5522343;26;19997;-54
2024/04/15 07:52:08;;;;;;;10.32;2.28;;;;;;;11.61;100.00;69692.78;5523641;26;20013;-54
2024/04/15 07:54:39;;;;;;;11.65;2.45;;;;;;;11.65;100.00;69700.66;5491393;26;19997;-55
2024/04/15 07:57:08;;;;;;;12.88;2.55;;;;;;;11.57;100.00;69691.31;5523268;26;20005;-55
2024/04/15 07:59:39;;;;;;;9.05;2.00;;;;;;;11.66;100.00;69696.03;5523902;26;20005;-54
2024/04/15 08:02:09;;;;;;;7.60;2.28;;;;;;;11.70;100.00;69702.72;5523179;26;20341;-53
2024/04/15 08:04:46;;;;;;;9.57;2.45;;;;;;;11.79;100.00;69716.44;5523783;26;20061;-54
2024/04/15 08:07:14;;;;;;;12.23;2.65;;;;;;;11.89;100.00;69724.31;5523693;26;20001;-55
2024/04/15 08:09:44;;;;;;;10.68;3.03;;;;;;;11.94;100.00;69730.16;5523295;26;19997;-55
2024/04/15 08:12:12;;;;;;;8.15;2.35;;;;;;;12.03;100.00;69740.13;5523606;26;20002;-54
2024/04/15 08:14:45;;;;;;;8.60;2.40;;;;;;;12.14;100.00;69753.56;5523329;26;20006;-55
2024/04/15 08:17:15;;;;;;;9.30;2.28;;;;;;;12.24;100.00;69762.03;5523351;26;19994;-54
2024/04/15 08:19:48;;;;;;;9.63;2.45;;;;;;;12.32;100.00;69776.03;5523702;26;19994;-55
2024/04/15 08:22:16;;;;;;;11.82;2.65;;;;;;;12.41;100.00;69788.59;5518766;26;20005;-54
2024/04/15 08:24:50;;;;;;;10.30;2.50;;;;;;;12.52;100.00;69798.84;5518693;26;20066;-55
2024/04/15 08:27:18;;;;;;;13.02;2.63;;;;;;;12.56;100.00;69800.91;5520943;26;20005;-53
2024/04/15 08:29:49;;;;;;;10.60;2.58;;;;;;;12.61;100.00;69801.53;5523516;26;20061;-55
2024/04/15 08:32:19;;;;;;;9.35;2.55;;;;;;;12.62;100.00;69807.91;5519877;25;20004;-53
2024/04/15 08:34:50;;;;;;;9.05;3.05;;;;;;;12.68;100.00;69814.34;5518146;26;20546;-47
2024/04/15 08:37:17;;;;;;;10.25;2.60;;;;;;;12.73;100.00;69822.81;5522035;26;19997;-47
2024/04/15 08:39:48;;;;;;;12.85;3.00;;;;;;;12.83;100.00;69831.31;5519521;26;19993;-55
2024/04/15 08:42:25;;;;;;;7.25;2.63;;;;;;;12.87;100.00;69833.38;5521316;26;19997;-54
2024/04/15 08:44:56;;;;;;;9.77;2.90;;;;;;;12.75;100.00;69822.53;5518917;26;19997;-55
2024/04/15 08:47:30;;;;;;;7.95;2.65;;;;;;;12.79;100.00;69829.25;5519017;26;20783;-55
2024/04/15 08:50:02;;;;;;;11.30;3.28;;;;;;;12.85;100.00;69833.63;5484870;26;20004;-55
2024/04/15 08:52:30;;;;;;;9.45;2.75;;;;;;;12.89;100.00;69835.69;5486404;26;20074;-55
2024/04/15 08:55:03;;;;;;;10.73;2.90;;;;;;;12.97;100.00;69845.03;5518759;26;20005;-55
2024/04/15 08:57:31;;;;;;;11.18;3.10;;;;;;;12.70;100.00;69818.72;5522471;26;19990;-54
2024/04/15 09:00:04;;;;;;;9.65;3.22;;;;;;;12.76;100.00;69825.72;5520184;26;19997;-55
2024/04/15 09:02:34;;;;;;;9.30;3.13;;;;;;;12.80;100.00;69830.41;5523451;26;20013;-56
2024/04/15 09:05:06;;;;;;;12.63;2.75;;;;;;;13.08;100.00;69862.56;5525690;25;20335;-55
2024/04/15 09:07:34;;;;;;;9.85;2.38;;;;;;;13.15;100.00;69867.56;5526259;26;20064;-54
2024/04/15 09:10:04;;;;;;;10.23;2.28;;;;;;;13.28;100.00;69876.91;5525980;26;20321;-55
2024/04/15 09:12:36;;;;;;;9.52;2.50;;;;;;;13.31;100.00;69881.03;5525170;26;20005;-55
2024/04/15 09:15:07;;;;;;;8.38;2.20;;;;;;;13.27;100.00;69886.81;5521180;26;19993;-55
2024/04/15 09:17:38;;;;;;;8.70;2.10;;;;;;;13.15;100.00;69864.94;5489131;26;20012;-47
2024/04/15 09:20:10;;;;;;;7.38;1.92;;;;;;;13.35;100.00;69890.97;5518689;26;19998;-49
2024/04/15 09:22:38;;;;;;;7.43;2.05;;;;;;;13.38;100.00;69893.31;5525685;26;20455;-46
2024/04/15 09:25:09;;;;;;;7.50;2.08;;;;;;;13.63;100.00;69921.97;5525551;26;20472;-52
2024/04/15 09:27:37;;;;;;;7.70;2.05;;;;;;;13.79;100.00;69934.84;5525559;26;20088;-49
2024/04/15 09:30:10;;;;;;;10.98;2.20;;;;;;;14.08;100.00;69976.06;5525610;26;19993;-51
2024/04/15 09:32:42;;;;;;;6.95;1.73;;;;;;;14.58;100.00;70027.59;5526018;26;20340;-50
2024/04/15 09:35:13;;;;;;;7.55;1.80;;;;;;;14.90;100.00;70066.53;5492929;25;20001;-51
2024/04/15 09:37:41;;;;;;;8.00;2.28;;;;;;;14.94;97.27;70068.59;5525715;26;20000;-46
2024/04/15 09:40:16;;;;;;;8.52;2.47;;;;;;;14.97;95.23;70074.16;5492810;26;19993;-52
2024/04/15 09:42:44;;;;;;;8.52;1.83;;;;;;;14.99;93.41;70074.44;5525301;26;20013;-47
2024/04/15 09:45:15;;;;;;;7.25;1.60;;;;;;;15.11;96.76;70087.94;5525095;25;20001;-48
2024/04/15 09:47:50;;;;;;;10.18;2.10;;;;;;;15.00;91.17;70073.00;5525544;26;19993;-48
2024/04/15 09:50:21;;;;;;;8.52;1.90;;;;;;;14.78;92.96;70053.09;5525489;26;20425;-47
2024/04/15 09:52:59;;;;;;;6.53;1.58;;;;;;;14.37;90.28;70009.44;5525231;26;20001;-49
2024/04/15 09:55:30;;;;;;;6.95;1.60;;;;;;;14.32;88.65;70000.38;5525416;26;20441;-47
2024/04/15 09:58:05;;;;;;;5.65;1.60;;;;;;;14.20;90.13;69987.50;5525920;25;19998;-46
2024/04/15 10:00:37;;;;;;;6.40;1.40;;;;;;;14.16;88.78;69982.22;5525325;25;20070;-49
2024/04/15 10:03:12;;;;;;;6.00;1.50;;;;;;;14.10;95.62;69975.78;5524906;26;20548;-48
2024/04/15 10:05:41;;;;;;;7.70;1.80;;;;;;;14.16;93.18;69985.44;5525317;26;20034;-47
2024/04/15 10:08:14;;;;;;;8.88;1.98;;;;;;;13.88;93.10;69953.25;5525192;26;19998;-46
2024/04/15 10:10:43;;;;;;;7.28;1.50;;;;;;;13.71;94.54;69930.75;5524799;26;20440;-46
2024/04/15 10:13:14;;;;;;;8.55;1.70;;;;;;;13.71;93.50;69925.50;5523837;26;20013;-47
2024/04/15 10:15:42;;;;;;;6.50;1.70;;;;;;;13.70;92.81;69930.16;5525402;26;20009;-46
2024/04/15 10:18:17;;;;;;;6.28;1.58;;;;;;;13.50;92.99;69907.34;5524942;26;19997;-47
2024/04/15 10:20:48;;;;;;;6.93;1.70;;;;;;;13.42;94.56;69898.00;5524842;26;20372;-48
2024/04/15 10:23:24;;;;;;;9.63;1.70;;;;;;;13.32;97.01;69892.69;5492118;26;20013;-47
2024/04/15 10:25:52;;;;;;;11.55;1.60;;;;;;;13.06;98.46;69851.78;5524955;26;20033;-48
2024/04/15 10:28:24;;;;;;;9.55;1.67;;;;;;;13.11;98.25;69860.25;5524653;26;20002;-46
2024/04/15 10:30:52;;;;;;;10.20;2.03;;;;;;;13.12;100.00;69861.44;5524955;26;20009;-47
2024/04/15 10:33:26;;;;;;;5.97;1.65;;;;;;;13.01;100.00;69849.72;5491701;26;20012;-47
2024/04/15 10:35:54;;;;;;;7.53;1.70;;;;;;;12.77;100.00;69829.53;5524743;26;20010;-47
2024/04/15 10:38:29;;;;;;;6.53;1.73;;;;;;;12.59;100.00;69804.41;5524266;26;20026;-49
2024/04/15 10:40:57;;;;;;;7.28;1.60;;;;;;;12.57;100.00;69804.09;5492124;26;20005;-50
2024/04/15 10:43:28;;;;;;;6.28;1.85;;;;;;;12.67;100.00;69816.38;5524473;25;20808;-47
2024/04/15 10:45:55;;;;;;;8.63;2.10;;;;;;;12.75;100.00;69821.94;5524340;26;20325;-47
2024/04/15 10:48:29;;;;;;;7.95;1.90;;;;;;;12.62;100.00;69807.91;5521750;26;19997;-46
2024/04/15 10:50:57;;;;;;;7.25;1.85;;;;;;;12.47;100.00;69793.00;5524265;26;20004;-46
2024/04/15 10:53:27;;;;;;;7.43;1.80;;;;;;;12.34;100.00;69773.75;5524017;25;20029;-46
2024/04/15 10:55:56;;;;;;;6.20;1.50;;;;;;;12.27;100.00;69768.19;5524343;26;19998;-46
2024/04/15 10:58:26;;;;;;;8.52;1.65;;;;;;;12.26;100.00;69763.81;5523422;25;20006;-45
2024/04/15 11:00:55;;;;;;;7.78;1.52;;;;;;;12.20;100.00;69762.03;5524166;26;20001;-46
2024/04/15 11:03:30;;;;;;;5.03;1.90;;;;;;;12.05;100.00;69743.03;5524136;26;20017;-46
2024/04/15 11:05:58;;;;;;;10.07;1.75;;;;;;;11.80;100.00;69711.78;5524306;26;20006;-48
2024/04/15 11:08:28;;;;;;;10.25;2.00;;;;;;;11.72;100.00;69699.81;5523277;25;19997;-54
2024/04/15 11:10:56;;;;;;;11.60;1.80;;;;;;;11.53;100.00;69686.63;5520882;26;19997;-54
2024/04/15 11:13:27;;;;;;;7.60;2.17;;;;;;;11.43;100.00;69674.97;5519120;25;20016;-54
2024/04/15 11:15:55;;;;;;;6.53;1.70;;;;;;;11.26;100.00;69653.66;5521653;26;19998;-54
2024/04/15 11:18:26;;;;;;;7.45;1.70;;;;;;;11.08;100.00;69633.22;5524165;26;20012;-55
2024/04/15 11:21:02;;;;;;;9.63;2.30;;;;;;;10.94;100.00;69619.50;5523863;26;20021;-55
2024/04/15 11:23:32;;;;;;;5.53;1.80;;;;;;;10.89;100.00;69611.03;5518612;26;20015;-52
2024/04/15 11:26:03;;;;;;;7.13;2.00;;;;;;;10.87;100.00;69611.91;5487175;26;19998;-53
2024/04/15 11:28:36;;;;;;;12.00;2.65;;;;;;;10.91;100.00;69616.56;5519952;26;20012;-53
2024/04/15 11:31:04;;;;;;;8.80;2.38;;;;;;;10.89;100.00;69614.22;5519637;26;19998;-53
2024/04/15 11:33:35;;;;;;;6.95;1.98;;;;;;;10.91;100.00;69613.97;5522880;26;20002;-54
2024/04/15 11:36:13;;;;;;;9.70;1.70;;;;;;;10.78;100.00;69601.97;5518184;26;20044;-53
2024/04/15 11:38:44;;;;;;;9.48;2.17;;;;;;;10.69;100.00;69588.25;5520883;26;20449;-53
2024/04/15 11:41:12;;;;;;;10.27;2.17;;;;;;;10.63;100.00;69581.84;5523979;26;20402;-53